createdAt,value
2023-02-11T00:01:49.945Z,78.13
2023-02-11T00:04:19.678Z,78.35
2023-02-11T00:06:50.105Z,78.78
2023-02-11T00:09:19.895Z,79.32
2023-02-11T00:11:49.757Z,79.29
2023-02-11T00:14:19.133Z,79.97
2023-02-11T00:16:50.320Z,79.70
2023-02-11T00:19:20.527Z,79.56
2023-02-11T00:21:50.058Z,79.30
2023-02-11T00:24:19.343Z,79.73
2023-02-11T00:26:49.038Z,79.87
2023-02-11T00:29:18.417Z,79.56
2023-02-11T00:31:49.746Z,79.29
2023-02-11T00:34:19.055Z,79.68
2023-02-11T00:36:49.590Z,79.25
2023-02-11T00:39:18.928Z,79.56
2023-02-11T00:41:48.533Z,79.64
2023-02-11T00:44:17.840Z,79.53
2023-02-11T00:46:47.490Z,79.26
2023-02-11T00:49:18.213Z,79.70
2023-02-11T00:51:47.850Z,79.90
2023-02-11T00:54:17.113Z,80.08
2023-02-11T00:56:46.659Z,79.67
2023-02-11T00:59:15.821Z,79.34
2023-02-11T01:01:45.391Z,79.67
2023-02-11T01:04:14.606Z,79.55
2023-02-11T01:06:45.679Z,79.61
2023-02-11T01:09:14.963Z,79.89
2023-02-11T01:11:44.523Z,80.21
2023-02-11T01:14:13.765Z,79.76
2023-02-11T01:16:43.358Z,80.15
2023-02-11T01:19:12.626Z,80.09
2023-02-11T01:21:42.214Z,80.21
2023-02-11T01:24:12.915Z,80.24
2023-02-11T01:26:42.463Z,80.44
2023-02-11T01:29:11.671Z,80.51
2023-02-11T01:31:41.210Z,80.55
2023-02-11T01:34:10.386Z,80.83
2023-02-11T01:36:39.943Z,80.61
2023-02-11T01:39:09.915Z,80.72
2023-02-11T01:41:40.985Z,80.97
2023-02-11T01:44:26.325Z,80.74
2023-02-11T01:46:55.943Z,81.34
2023-02-11T01:49:27.474Z,81.06
2023-02-11T01:51:58.615Z,81.54
2023-02-11T01:54:45.561Z,80.88
2023-02-11T01:57:26.228Z,80.75
2023-02-11T02:00:00.359Z,80.91
2023-02-11T02:02:31.600Z,81.73
2023-02-11T02:05:02.134Z,81.52
2023-02-11T02:07:34.689Z,81.83
2023-02-11T02:10:05.751Z,81.87
2023-02-11T02:12:36.866Z,81.25
2023-02-11T02:15:22.589Z,81.77
2023-02-11T02:18:12.746Z,81.33
2023-02-11T02:20:54.545Z,81.28
2023-02-11T02:23:37.591Z,81.65
2023-02-11T02:26:33.529Z,81.39
2023-02-11T02:29:16.790Z,82.13
2023-02-11T02:31:54.513Z,82.04
2023-02-11T02:34:28.014Z,82.14
2023-02-11T02:36:57.636Z,82.26
2023-02-11T02:39:27.984Z,82.55
2023-02-11T02:41:57.195Z,82.32
2023-02-11T02:44:26.784Z,82.23
2023-02-11T02:46:56.084Z,81.65
2023-02-11T02:49:27.159Z,82.22
2023-02-11T02:52:18.407Z,82.56
2023-02-11T02:55:06.620Z,82.11
2023-02-11T02:57:37.951Z,82.87
2023-02-11T03:00:18.083Z,82.62
2023-02-11T03:02:51.384Z,82.22
2023-02-11T03:05:23.439Z,82.20
2023-02-11T03:07:53.180Z,82.19
2023-02-11T03:10:23.224Z,82.48
2023-02-11T03:12:52.497Z,82.49
2023-02-11T03:15:22.115Z,82.71
2023-02-11T03:17:51.428Z,82.39
2023-02-11T03:20:22.598Z,82.89
2023-02-11T03:22:52.634Z,82.68
2023-02-11T03:25:22.251Z,82.70
2023-02-11T03:27:53.544Z,82.93
2023-02-11T03:30:24.166Z,82.81
2023-02-11T03:32:54.052Z,83.00
2023-02-11T03:35:26.017Z,83.19
2023-02-11T03:37:55.659Z,82.97
2023-02-11T03:40:25.451Z,82.65
2023-02-11T03:42:55.770Z,83.18
2023-02-11T03:45:25.781Z,82.90
2023-02-11T03:47:56.280Z,82.89
2023-02-11T03:50:27.270Z,83.07
2023-02-11T03:52:56.970Z,83.33
2023-02-11T03:55:27.081Z,83.77
2023-02-11T03:57:56.362Z,84.08
2023-02-11T04:00:31.022Z,83.42
2023-02-11T04:03:00.232Z,83.43
2023-02-11T04:05:31.512Z,83.10
2023-02-11T04:08:00.774Z,83.46
2023-02-11T04:10:30.377Z,83.31
2023-02-11T04:12:59.708Z,83.34
2023-02-11T04:15:29.417Z,83.14
2023-02-11T04:17:58.757Z,82.73
2023-02-11T04:20:28.309Z,83.07
2023-02-11T04:22:59.005Z,83.39
2023-02-11T04:25:28.641Z,82.70
2023-02-11T04:27:57.972Z,83.28
2023-02-11T04:30:27.587Z,83.82
2023-02-11T04:32:56.838Z,83.78
2023-02-11T04:35:26.385Z,83.58
2023-02-11T04:37:55.625Z,83.63
2023-02-11T04:40:26.683Z,83.73
2023-02-11T04:42:55.984Z,83.39
2023-02-11T04:45:25.708Z,83.67
2023-02-11T04:47:55.027Z,84.04
2023-02-11T04:50:24.656Z,83.98
2023-02-11T04:52:53.879Z,83.70
2023-02-11T04:55:23.532Z,84.10
2023-02-11T04:57:55.447Z,83.77
2023-02-11T05:00:25.157Z,83.60
2023-02-11T05:02:54.519Z,84.52
2023-02-11T05:05:24.239Z,84.55
2023-02-11T05:07:53.552Z,84.58
2023-02-11T05:10:23.153Z,85.44
2023-02-11T05:12:55.866Z,85.39
2023-02-11T05:15:25.820Z,85.64
2023-02-11T05:17:55.113Z,85.46
2023-02-11T05:20:24.770Z,85.66
2023-02-11T05:22:54.074Z,85.35
2023-02-11T05:25:23.670Z,85.59
2023-02-11T05:27:54.438Z,86.39
2023-02-11T05:30:24.210Z,86.60
2023-02-11T05:32:53.580Z,86.46
2023-02-11T05:35:23.240Z,86.98
2023-02-11T05:37:52.515Z,86.66
2023-02-11T05:40:22.264Z,86.75
2023-02-11T05:42:51.553Z,87.45
2023-02-11T05:45:22.526Z,87.18
2023-02-11T05:47:51.758Z,87.34
2023-02-11T05:50:21.425Z,87.00
2023-02-11T05:52:50.739Z,87.02
2023-02-11T05:55:20.698Z,87.77
2023-02-11T05:57:49.924Z,87.40
2023-02-11T06:00:19.692Z,87.57
2023-02-11T06:02:50.459Z,87.34
2023-02-11T06:05:20.350Z,87.77
2023-02-11T06:07:49.604Z,88.13
2023-02-11T06:10:19.242Z,88.45
2023-02-11T06:12:48.655Z,88.74
2023-02-11T06:15:18.366Z,89.25
2023-02-11T06:17:47.649Z,89.73
2023-02-11T06:20:18.759Z,89.11
2023-02-11T06:22:48.173Z,90.31
2023-02-11T06:25:17.875Z,90.68
2023-02-11T06:27:47.307Z,90.65
2023-02-11T06:30:16.925Z,90.32
2023-02-11T06:32:46.430Z,90.26
2023-02-11T06:35:16.298Z,91.03
2023-02-11T06:37:47.186Z,90.76
2023-02-11T06:40:16.936Z,91.29
2023-02-11T06:42:46.459Z,91.74
2023-02-11T06:45:16.196Z,91.70
2023-02-11T06:47:45.474Z,91.59
2023-02-11T06:50:15.597Z,90.68
2023-02-11T06:52:44.899Z,90.62
2023-02-11T06:55:16.332Z,92.47
2023-02-11T06:57:45.527Z,92.37
2023-02-11T07:00:15.864Z,92.44
2023-02-11T07:02:45.101Z,93.20
2023-02-11T07:05:14.858Z,93.03
2023-02-11T07:07:44.129Z,93.59
2023-02-11T07:10:13.850Z,92.99
2023-02-11T07:12:44.607Z,93.16
2023-02-11T07:15:14.252Z,93.36
2023-02-11T07:17:43.570Z,94.41
2023-02-11T07:20:14.841Z,93.68
2023-02-11T07:22:44.159Z,94.78
2023-02-11T07:25:13.688Z,93.76
2023-02-11T07:27:44.479Z,95.04
2023-02-11T07:30:14.810Z,94.68
2023-02-11T07:32:44.093Z,95.26
2023-02-11T07:35:14.926Z,95.38
2023-02-11T07:37:44.163Z,94.89
2023-02-11T07:40:13.825Z,95.43
2023-02-11T07:42:44.596Z,94.71
2023-02-11T07:45:14.282Z,95.41
2023-02-11T07:47:43.993Z,95.46
2023-02-11T07:50:13.614Z,95.46
2023-02-11T07:52:42.893Z,95.54
2023-02-11T07:55:12.650Z,94.98
2023-02-11T07:57:42.127Z,94.97
2023-02-11T08:00:14.294Z,95.52
2023-02-11T08:02:43.527Z,95.47
2023-02-11T08:05:13.283Z,96.04
2023-02-11T08:07:42.560Z,95.45
2023-02-11T08:10:12.266Z,95.80
2023-02-11T08:12:41.534Z,96.09
2023-02-11T08:15:11.385Z,95.28
2023-02-11T08:17:42.240Z,96.16
2023-02-11T08:20:12.279Z,96.21
2023-02-11T08:22:43.624Z,94.78
2023-02-11T08:25:13.266Z,95.53
2023-02-11T08:27:42.613Z,95.94
2023-02-11T08:30:12.968Z,97.09
2023-02-11T08:32:43.897Z,97.06
2023-02-11T08:35:13.652Z,97.32
2023-02-11T08:37:42.933Z,97.49
2023-02-11T08:40:12.781Z,97.28
2023-02-11T08:42:41.955Z,97.02
2023-02-11T08:45:12.552Z,97.30
2023-02-11T08:47:41.818Z,97.80
2023-02-11T08:50:13.080Z,97.79
2023-02-11T08:52:43.216Z,97.81
2023-02-11T08:55:12.887Z,97.82
2023-02-11T08:57:42.060Z,98.27
2023-02-11T09:00:12.532Z,98.46
2023-02-11T09:02:41.866Z,98.61
2023-02-11T09:05:13.268Z,98.33
2023-02-11T09:07:42.621Z,98.57
2023-02-11T09:10:12.226Z,98.04
2023-02-11T09:12:41.483Z,98.37
2023-02-11T09:15:11.320Z,97.70
2023-02-11T09:17:40.545Z,97.60
2023-02-11T09:20:10.912Z,98.21
2023-02-11T09:22:41.734Z,99.08
2023-02-11T09:25:11.485Z,99.22
2023-02-11T09:27:40.846Z,99.38
2023-02-11T09:30:10.954Z,99.63
2023-02-11T09:32:40.301Z,99.94
2023-02-11T09:35:10.131Z,100.00
2023-02-11T09:37:39.308Z,100.00
2023-02-11T09:40:11.286Z,100.00
2023-02-11T09:42:45.540Z,99.94
2023-02-11T09:45:17.538Z,100.00
2023-02-11T09:47:50.933Z,100.00
2023-02-11T09:50:21.565Z,99.83
2023-02-11T09:52:52.989Z,100.00
2023-02-11T09:55:24.401Z,99.93
2023-02-11T09:57:53.662Z,100.00
2023-02-11T10:00:25.332Z,100.00
2023-02-11T10:02:59.086Z,100.00
2023-02-11T10:05:33.523Z,99.92
2023-02-11T10:08:03.126Z,100.00
2023-02-11T10:10:39.679Z,100.00
2023-02-11T10:13:16.419Z,100.00
2023-02-11T10:15:47.250Z,100.00
2023-02-11T10:18:19.870Z,100.00
2023-02-11T10:20:51.276Z,100.00
2023-02-11T10:23:21.255Z,100.00
2023-02-11T10:25:54.777Z,100.00
2023-02-11T10:28:25.421Z,100.00
2023-02-11T10:30:58.012Z,100.00
2023-02-11T10:33:28.354Z,100.00
2023-02-11T10:35:57.977Z,100.00
2023-02-11T10:38:27.873Z,100.00
2023-02-11T10:40:59.018Z,100.00
2023-02-11T10:43:29.009Z,100.00
2023-02-11T10:45:58.783Z,99.33
2023-02-11T10:48:37.876Z,98.95
2023-02-11T10:51:14.718Z,99.90
2023-02-11T10:53:44.067Z,99.86
2023-02-11T10:56:16.475Z,99.93
2023-02-11T10:58:47.327Z,99.66
2023-02-11T11:01:24.400Z,99.22
2023-02-11T11:03:54.490Z,99.27
2023-02-11T11:06:30.991Z,98.60
2023-02-11T11:09:01.276Z,99.01
2023-02-11T11:11:32.608Z,99.72
2023-02-11T11:14:03.394Z,100.00
2023-02-11T11:16:33.619Z,100.00
2023-02-11T11:19:17.207Z,99.88
2023-02-11T11:21:47.627Z,100.00
2023-02-11T11:24:18.352Z,99.20
2023-02-11T11:26:50.402Z,99.86
2023-02-11T11:29:20.266Z,99.96
2023-02-11T11:31:51.734Z,100.00
2023-02-11T11:34:23.109Z,100.00
2023-02-11T11:36:55.045Z,100.00
2023-02-11T11:39:25.852Z,100.00
2023-02-11T11:41:58.588Z,100.00
2023-02-11T11:44:31.944Z,100.00
2023-02-11T11:47:22.431Z,100.00
2023-02-11T11:49:53.449Z,100.00
2023-02-11T11:52:27.828Z,100.00
2023-02-11T11:54:57.582Z,100.00
2023-02-11T11:57:30.903Z,100.00
2023-02-11T12:00:00.439Z,100.00
2023-02-11T12:02:37.621Z,100.00
2023-02-11T12:05:08.677Z,100.00
2023-02-11T12:07:41.924Z,100.00
2023-02-11T12:10:20.845Z,100.00
2023-02-11T12:12:54.434Z,99.33
2023-02-11T12:15:29.702Z,99.14
2023-02-11T12:18:03.939Z,98.47
2023-02-11T12:20:34.348Z,99.30
2023-02-11T12:23:27.592Z,99.98
2023-02-11T12:25:59.007Z,99.25
2023-02-11T12:28:33.197Z,99.19
2023-02-11T12:31:05.951Z,99.03
2023-02-11T12:33:56.816Z,98.77
2023-02-11T12:36:29.271Z,99.29
2023-02-11T12:39:03.127Z,99.15
2023-02-11T12:41:52.409Z,100.00
2023-02-11T12:44:25.543Z,99.68
2023-02-11T12:46:56.268Z,99.99
2023-02-11T12:49:29.904Z,99.38
2023-02-11T12:52:09.079Z,99.75
2023-02-11T12:54:38.822Z,99.09
2023-02-11T12:57:08.497Z,99.10
2023-02-11T12:59:42.379Z,99.31
2023-02-11T13:02:15.630Z,98.62
2023-02-11T13:04:46.472Z,98.32
2023-02-11T13:07:16.845Z,99.02
2023-02-11T13:09:47.365Z,99.46
2023-02-11T13:12:33.752Z,98.75
2023-02-11T13:15:06.372Z,99.77
2023-02-11T13:17:39.440Z,99.63
2023-02-11T13:20:14.348Z,100.00
2023-02-11T13:22:45.034Z,100.00
2023-02-11T13:25:18.167Z,100.00
2023-02-11T13:27:50.692Z,100.00
2023-02-11T13:30:27.679Z,99.41
2023-02-11T13:33:07.863Z,100.00
2023-02-11T13:35:38.127Z,99.47
2023-02-11T13:38:07.730Z,99.32
2023-02-11T13:40:37.593Z,99.81
2023-02-11T13:43:07.286Z,99.16
2023-02-11T13:45:39.882Z,98.65
2023-02-11T13:48:15.282Z,99.19
2023-02-11T13:50:48.092Z,99.79
2023-02-11T13:53:17.287Z,100.00
2023-02-11T13:55:47.597Z,100.00
2023-02-11T13:58:21.570Z,100.00
2023-02-11T14:00:53.336Z,100.00
2023-02-11T14:03:41.282Z,99.52
2023-02-11T14:06:38.423Z,99.85
2023-02-11T14:09:12.837Z,99.29
2023-02-11T14:11:46.903Z,99.20
2023-02-11T14:14:21.886Z,99.05
2023-02-11T14:17:09.449Z,99.70
2023-02-11T14:19:43.717Z,98.35
2023-02-11T14:22:16.627Z,98.73
2023-02-11T14:24:48.063Z,98.23
2023-02-11T14:27:20.901Z,97.87
2023-02-11T14:29:56.796Z,97.96
2023-02-11T14:32:31.063Z,99.35
2023-02-11T14:35:01.920Z,99.16
2023-02-11T14:37:37.649Z,98.46
2023-02-11T14:40:10.177Z,97.99
2023-02-11T14:42:39.778Z,98.46
2023-02-11T14:45:11.003Z,97.86
2023-02-11T14:47:42.308Z,96.87
2023-02-11T14:50:17.674Z,97.34
2023-02-11T14:52:47.238Z,97.62
2023-02-11T14:55:18.038Z,97.76
2023-02-11T14:57:51.020Z,97.10
2023-02-11T15:00:22.646Z,97.16
2023-02-11T15:02:53.825Z,96.79
2023-02-11T15:05:26.262Z,96.19
2023-02-11T15:07:56.828Z,96.17
2023-02-11T15:10:31.586Z,96.12
2023-02-11T15:13:01.376Z,96.18
2023-02-11T15:15:30.839Z,96.10
2023-02-11T15:18:01.471Z,96.42
2023-02-11T15:20:33.099Z,96.78
2023-02-11T15:23:03.313Z,95.72
2023-02-11T15:25:34.263Z,95.98
2023-02-11T15:28:11.815Z,95.22
2023-02-11T15:30:41.000Z,94.87
2023-02-11T15:33:21.085Z,95.16
2023-02-11T15:35:51.948Z,94.87
2023-02-11T15:38:21.600Z,94.85
2023-02-11T15:40:54.433Z,94.06
2023-02-11T15:43:24.106Z,95.06
2023-02-11T15:45:57.827Z,94.85
2023-02-11T15:48:28.738Z,94.92
2023-02-11T15:51:00.384Z,94.75
2023-02-11T15:53:30.596Z,94.18
2023-02-11T15:56:02.831Z,94.08
2023-02-11T15:58:37.153Z,94.48
2023-02-11T16:01:06.845Z,94.11
2023-02-11T16:03:36.447Z,94.15
2023-02-11T16:06:22.946Z,94.24
2023-02-11T16:09:02.961Z,94.13
2023-02-11T16:11:32.731Z,94.51
2023-02-11T16:14:05.174Z,95.07
2023-02-11T16:16:35.974Z,94.70
2023-02-11T16:19:06.624Z,94.10
2023-02-11T16:21:39.439Z,93.57
2023-02-11T16:24:09.216Z,93.44
2023-02-11T16:26:39.393Z,93.33
2023-02-11T16:29:11.515Z,93.51
2023-02-11T16:31:41.490Z,93.20
2023-02-11T16:34:17.939Z,93.04
2023-02-11T16:36:50.004Z,92.73
2023-02-11T16:39:21.700Z,92.65
2023-02-11T16:41:51.914Z,92.35
2023-02-11T16:44:21.518Z,92.39
2023-02-11T16:46:50.955Z,92.44
2023-02-11T16:49:22.240Z,92.81
2023-02-11T16:51:53.472Z,92.52
2023-02-11T16:54:23.065Z,92.43
2023-02-11T16:56:52.588Z,91.89
2023-02-11T16:59:22.164Z,92.01
2023-02-11T17:01:51.488Z,91.88
2023-02-11T17:04:25.682Z,92.11
2023-02-11T17:06:58.324Z,91.87
2023-02-11T17:09:31.210Z,92.14
2023-02-11T17:12:03.504Z,91.88
2023-02-11T17:14:33.113Z,91.67
2023-02-11T17:17:02.472Z,91.52
2023-02-11T17:19:32.120Z,91.39
2023-02-11T17:22:02.830Z,91.43
2023-02-11T17:24:33.338Z,91.65
2023-02-11T17:27:03.066Z,91.50
2023-02-11T17:29:32.699Z,91.09
2023-02-11T17:32:04.599Z,91.14
2023-02-11T17:34:35.639Z,90.88
2023-02-11T17:37:09.408Z,90.46
2023-02-11T17:39:39.468Z,90.70
2023-02-11T17:42:09.057Z,90.66
2023-02-11T17:44:41.470Z,89.83
2023-02-11T17:47:10.786Z,90.39
2023-02-11T17:49:40.532Z,89.93
2023-02-11T17:52:11.516Z,89.53
2023-02-11T17:54:41.157Z,89.57
2023-02-11T17:57:11.583Z,89.53
2023-02-11T17:59:41.294Z,89.56
2023-02-11T18:02:12.164Z,89.44
2023-02-11T18:04:41.789Z,89.38
2023-02-11T18:07:12.575Z,89.10
2023-02-11T18:09:42.355Z,89.59
2023-02-11T18:12:12.113Z,89.34
2023-02-11T18:14:44.495Z,89.37
2023-02-11T18:17:13.743Z,89.46
2023-02-11T18:19:46.590Z,89.21
2023-02-11T18:22:17.287Z,89.30
2023-02-11T18:24:46.798Z,89.09
2023-02-11T18:27:16.102Z,89.09
2023-02-11T18:29:48.642Z,88.98
2023-02-11T18:32:18.042Z,88.82
2023-02-11T18:34:50.549Z,88.96
2023-02-11T18:37:23.747Z,88.89
2023-02-11T18:39:53.384Z,88.60
2023-02-11T18:42:22.686Z,88.39
2023-02-11T18:44:53.457Z,88.45
2023-02-11T18:47:24.975Z,88.79
2023-02-11T18:49:56.146Z,88.61
2023-02-11T18:52:33.822Z,88.44
2023-02-11T18:55:06.321Z,88.29
2023-02-11T18:57:36.715Z,88.53
2023-02-11T19:00:12.835Z,88.62
2023-02-11T19:02:44.449Z,88.44
2023-02-11T19:05:14.155Z,88.46
2023-02-11T19:07:44.986Z,88.35
2023-02-11T19:10:15.057Z,88.32
2023-02-11T19:12:45.128Z,88.54
2023-02-11T19:15:15.418Z,88.50
2023-02-11T19:17:44.655Z,88.49
2023-02-11T19:20:14.303Z,89.05
2023-02-11T19:22:45.043Z,88.95
2023-02-11T19:25:14.599Z,88.59
2023-02-11T19:27:45.320Z,88.85
2023-02-11T19:30:15.600Z,89.14
2023-02-11T19:32:44.954Z,89.11
2023-02-11T19:35:14.642Z,88.76
2023-02-11T19:37:45.840Z,88.57
2023-02-11T19:40:16.732Z,88.58
2023-02-11T19:42:46.000Z,88.77
2023-02-11T19:45:15.578Z,88.79
2023-02-11T19:47:44.906Z,88.78
2023-02-11T19:50:14.498Z,88.65
2023-02-11T19:52:43.724Z,88.79
2023-02-11T19:55:14.934Z,88.71
2023-02-11T19:57:44.169Z,88.79
2023-02-11T20:00:14.102Z,88.82
2023-02-11T20:02:43.374Z,88.78
2023-02-11T20:05:13.073Z,88.87
2023-02-11T20:07:42.257Z,88.87
2023-02-11T20:10:12.122Z,89.27
2023-02-11T20:12:42.836Z,89.24
2023-02-11T20:15:12.425Z,89.35
2023-02-11T20:17:41.571Z,89.36
2023-02-11T20:20:11.461Z,89.23
2023-02-11T20:22:40.740Z,89.46
2023-02-11T20:25:11.910Z,89.18
2023-02-11T20:27:42.576Z,89.27
2023-02-11T20:30:13.364Z,89.58
2023-02-11T20:32:42.573Z,89.36
2023-02-11T20:35:12.125Z,89.15
2023-02-11T20:37:44.023Z,89.32
2023-02-11T20:40:14.154Z,88.97
2023-02-11T20:42:44.822Z,89.09
2023-02-11T20:45:14.422Z,89.12
2023-02-11T20:47:43.754Z,89.08
2023-02-11T20:50:13.393Z,88.70
2023-02-11T20:52:42.713Z,88.95
2023-02-11T20:55:12.308Z,88.94
2023-02-11T20:57:41.602Z,89.01
2023-02-11T21:00:14.671Z,88.94
2023-02-11T21:02:43.914Z,88.75
2023-02-11T21:05:13.641Z,88.56
2023-02-11T21:07:42.860Z,88.53
2023-02-11T21:10:12.833Z,88.01
2023-02-11T21:12:42.122Z,87.80
2023-02-11T21:15:13.442Z,88.03
2023-02-11T21:17:42.692Z,87.94
2023-02-11T21:20:12.612Z,87.93
2023-02-11T21:22:41.868Z,87.80
2023-02-11T21:25:11.838Z,88.14
2023-02-11T21:27:41.136Z,88.13
2023-02-11T21:30:11.576Z,88.19
2023-02-11T21:32:42.326Z,87.82
2023-02-11T21:35:11.887Z,87.91
2023-02-11T21:37:41.091Z,87.92
2023-02-11T21:40:11.458Z,87.83
2023-02-11T21:42:40.829Z,87.88
2023-02-11T21:45:10.955Z,87.97
2023-02-11T21:47:41.712Z,87.95
2023-02-11T21:50:11.631Z,88.05
2023-02-11T21:52:40.940Z,87.65
2023-02-11T21:55:10.613Z,87.52
2023-02-11T21:57:39.887Z,87.83
2023-02-11T22:00:10.136Z,87.86
2023-02-11T22:02:39.462Z,87.92
2023-02-11T22:05:10.573Z,88.37
2023-02-11T22:07:39.847Z,88.10
2023-02-11T22:10:09.962Z,88.21
2023-02-11T22:12:39.207Z,88.12
2023-02-11T22:15:09.347Z,88.25
2023-02-11T22:17:38.687Z,87.96
2023-02-11T22:20:08.794Z,88.35
2023-02-11T22:22:39.558Z,88.28
2023-02-11T22:25:09.345Z,87.97
2023-02-11T22:27:38.591Z,87.97
2023-02-11T22:30:08.835Z,87.47
2023-02-11T22:32:38.067Z,87.53
2023-02-11T22:35:08.030Z,87.45
2023-02-11T22:37:37.598Z,87.72
2023-02-11T22:40:09.444Z,88.18
2023-02-11T22:42:38.771Z,88.13
2023-02-11T22:45:08.859Z,88.21
2023-02-11T22:47:39.023Z,88.43
2023-02-11T22:50:08.898Z,88.67
2023-02-11T22:52:38.224Z,88.60
2023-02-11T22:55:09.847Z,88.84
2023-02-11T22:57:39.100Z,88.64
2023-02-11T23:00:09.966Z,88.53
2023-02-11T23:02:39.326Z,88.80
2023-02-11T23:05:08.962Z,88.41
2023-02-11T23:07:38.149Z,88.98
2023-02-11T23:10:09.950Z,88.58
2023-02-11T23:12:39.301Z,88.58
2023-02-11T23:15:09.479Z,88.78
2023-02-11T23:17:38.756Z,88.69
2023-02-11T23:20:08.853Z,88.64
2023-02-11T23:22:38.175Z,88.56
2023-02-11T23:25:09.543Z,88.63
2023-02-11T23:27:38.842Z,88.76
2023-02-11T23:30:09.093Z,88.71
2023-02-11T23:32:39.314Z,89.10
2023-02-11T23:35:09.157Z,88.99
2023-02-11T23:37:38.473Z,88.93
2023-02-11T23:40:10.368Z,88.96
2023-02-11T23:42:39.606Z,89.13
2023-02-11T23:45:09.561Z,88.90
2023-02-11T23:47:39.358Z,89.10
2023-02-11T23:50:09.256Z,89.11
2023-02-11T23:52:38.647Z,88.91
2023-02-11T23:55:09.905Z,88.78
2023-02-11T23:57:39.167Z,88.66
